sensor_id;sensor_type;location;lat;lon;timestamp;P1;durP1;ratioP1;P2;durP2;ratioP2
9834;SDS011;69850;50.942;13.748;2023-05-10T00:00:29;4.53;;;2.85;;
9834;SDS011;69850;50.942;13.748;2023-05-10T00:03:50;3.15;;;2.72;;
9834;SDS011;69850;50.942;13.748;2023-05-10T00:07:10;4.45;;;2.80;;
9834;SDS011;69850;50.942;13.748;2023-05-10T00:10:31;5.07;;;2.92;;
9834;SDS011;69850;50.942;13.748;2023-05-10T00:13:53;3.70;;;2.88;;
9834;SDS011;69850;50.942;13.748;2023-05-10T00:17:14;3.75;;;2.80;;
9834;SDS011;69850;50.942;13.748;2023-05-10T00:20:34;4.90;;;2.70;;
9834;SDS011;69850;50.942;13.748;2023-05-10T00:23:55;5.95;;;2.88;;
9834;SDS011;69850;50.942;13.748;2023-05-10T00:27:16;4.13;;;2.70;;
9834;SDS011;69850;50.942;13.748;2023-05-10T00:30:36;3.00;;;2.67;;
9834;SDS011;69850;50.942;13.748;2023-05-10T00:33:57;5.05;;;2.78;;
9834;SDS011;69850;50.942;13.748;2023-05-10T00:37:17;4.18;;;2.70;;
9834;SDS011;69850;50.942;13.748;2023-05-10T00:40:38;4.40;;;2.70;;
9834;SDS011;69850;50.942;13.748;2023-05-10T00:44:04;3.42;;;2.60;;
9834;SDS011;69850;50.942;13.748;2023-05-10T00:47:25;3.13;;;2.55;;
9834;SDS011;69850;50.942;13.748;2023-05-10T00:50:47;4.85;;;2.70;;
9834;SDS011;69850;50.942;13.748;2023-05-10T00:54:08;3.45;;;2.53;;
9834;SDS011;69850;50.942;13.748;2023-05-10T00:57:32;5.10;;;2.60;;
9834;SDS011;69850;50.942;13.748;2023-05-10T01:00:54;6.07;;;2.80;;
9834;SDS011;69850;50.942;13.748;2023-05-10T01:04:16;4.13;;;2.92;;
9834;SDS011;69850;50.942;13.748;2023-05-10T01:07:40;3.45;;;2.70;;
9834;SDS011;69850;50.942;13.748;2023-05-10T01:11:01;3.00;;;2.45;;
9834;SDS011;69850;50.942;13.748;2023-05-10T01:14:22;6.82;;;2.67;;
9834;SDS011;69850;50.942;13.748;2023-05-10T01:17:43;3.97;;;2.58;;
9834;SDS011;69850;50.942;13.748;2023-05-10T01:24:44;3.75;;;2.33;;
9834;SDS011;69850;50.942;13.748;2023-05-10T01:35:23;6.20;;;2.60;;
9834;SDS011;69850;50.942;13.748;2023-05-10T01:42:43;2.85;;;2.40;;
9834;SDS011;69850;50.942;13.748;2023-05-10T01:46:09;5.45;;;2.80;;
9834;SDS011;69850;50.942;13.748;2023-05-10T01:49:34;6.18;;;2.67;;
9834;SDS011;69850;50.942;13.748;2023-05-10T01:52:59;4.03;;;2.42;;
9834;SDS011;69850;50.942;13.748;2023-05-10T01:56:23;2.95;;;2.42;;
9834;SDS011;69850;50.942;13.748;2023-05-10T01:59:44;4.32;;;2.65;;
9834;SDS011;69850;50.942;13.748;2023-05-10T02:03:07;3.88;;;2.80;;
9834;SDS011;69850;50.942;13.748;2023-05-10T02:06:28;3.92;;;2.75;;
9834;SDS011;69850;50.942;13.748;2023-05-10T02:09:51;4.35;;;2.58;;
9834;SDS011;69850;50.942;13.748;2023-05-10T02:13:11;4.55;;;2.53;;
9834;SDS011;69850;50.942;13.748;2023-05-10T02:16:33;3.50;;;2.17;;
9834;SDS011;69850;50.942;13.748;2023-05-10T02:19:57;3.20;;;2.55;;
9834;SDS011;69850;50.942;13.748;2023-05-10T02:23:19;6.30;;;2.55;;
9834;SDS011;69850;50.942;13.748;2023-05-10T02:26:40;3.75;;;2.47;;
9834;SDS011;69850;50.942;13.748;2023-05-10T02:30:01;6.50;;;2.88;;
9834;SDS011;69850;50.942;13.748;2023-05-10T02:33:23;3.15;;;2.30;;
9834;SDS011;69850;50.942;13.748;2023-05-10T02:36:46;3.05;;;2.40;;
9834;SDS011;69850;50.942;13.748;2023-05-10T02:40:06;4.95;;;2.47;;
9834;SDS011;69850;50.942;13.748;2023-05-10T02:43:28;5.72;;;2.65;;
9834;SDS011;69850;50.942;13.748;2023-05-10T02:46:50;5.13;;;2.85;;
9834;SDS011;69850;50.942;13.748;2023-05-10T02:50:11;5.43;;;3.08;;
9834;SDS011;69850;50.942;13.748;2023-05-10T02:53:32;7.47;;;2.83;;
9834;SDS011;69850;50.942;13.748;2023-05-10T02:56:56;4.80;;;2.55;;
9834;SDS011;69850;50.942;13.748;2023-05-10T03:00:18;3.38;;;2.53;;
9834;SDS011;69850;50.942;13.748;2023-05-10T03:03:38;3.42;;;2.42;;
9834;SDS011;69850;50.942;13.748;2023-05-10T03:06:59;4.72;;;2.67;;
9834;SDS011;69850;50.942;13.748;2023-05-10T03:10:21;5.93;;;2.75;;
9834;SDS011;69850;50.942;13.748;2023-05-10T03:17:30;3.53;;;2.60;;
9834;SDS011;69850;50.942;13.748;2023-05-10T03:21:04;4.82;;;2.60;;
9834;SDS011;69850;50.942;13.748;2023-05-10T03:24:29;2.90;;;2.60;;
9834;SDS011;69850;50.942;13.748;2023-05-10T03:27:53;3.60;;;2.75;;
9834;SDS011;69850;50.942;13.748;2023-05-10T03:31:14;4.90;;;2.90;;
9834;SDS011;69850;50.942;13.748;2023-05-10T03:34:40;5.35;;;2.90;;
9834;SDS011;69850;50.942;13.748;2023-05-10T03:38:02;5.80;;;2.65;;
9834;SDS011;69850;50.942;13.748;2023-05-10T03:41:22;4.13;;;2.90;;
9834;SDS011;69850;50.942;13.748;2023-05-10T03:44:43;3.13;;;2.83;;
9834;SDS011;69850;50.942;13.748;2023-05-10T03:48:04;3.42;;;2.60;;
9834;SDS011;69850;50.942;13.748;2023-05-10T03:51:25;5.32;;;2.45;;
9834;SDS011;69850;50.942;13.748;2023-05-10T03:54:48;4.82;;;2.60;;
9834;SDS011;69850;50.942;13.748;2023-05-10T03:58:12;2.90;;;2.55;;
9834;SDS011;69850;50.942;13.748;2023-05-10T04:01:33;6.80;;;2.50;;
9834;SDS011;69850;50.942;13.748;2023-05-10T04:04:54;4.10;;;2.50;;
9834;SDS011;69850;50.942;13.748;2023-05-10T04:08:15;3.47;;;2.40;;
9834;SDS011;69850;50.942;13.748;2023-05-10T04:11:36;4.40;;;2.58;;
9834;SDS011;69850;50.942;13.748;2023-05-10T04:14:57;3.63;;;2.40;;
9834;SDS011;69850;50.942;13.748;2023-05-10T04:18:17;2.72;;;2.05;;
9834;SDS011;69850;50.942;13.748;2023-05-10T04:21:38;3.88;;;2.30;;
9834;SDS011;69850;50.942;13.748;2023-05-10T04:24:59;3.83;;;2.63;;
9834;SDS011;69850;50.942;13.748;2023-05-10T04:28:19;2.85;;;2.42;;
9834;SDS011;69850;50.942;13.748;2023-05-10T04:31:40;3.85;;;2.20;;
9834;SDS011;69850;50.942;13.748;2023-05-10T04:35:01;3.10;;;2.10;;
9834;SDS011;69850;50.942;13.748;2023-05-10T04:38:23;4.10;;;2.30;;
9834;SDS011;69850;50.942;13.748;2023-05-10T04:41:44;3.20;;;2.50;;
9834;SDS011;69850;50.942;13.748;2023-05-10T04:45:05;2.47;;;1.90;;
9834;SDS011;69850;50.942;13.748;2023-05-10T04:48:26;3.63;;;2.10;;
9834;SDS011;69850;50.942;13.748;2023-05-10T04:51:47;5.03;;;2.28;;
9834;SDS011;69850;50.942;13.748;2023-05-10T04:55:07;3.65;;;2.00;;
9834;SDS011;69850;50.942;13.748;2023-05-10T04:58:29;2.72;;;1.90;;
9834;SDS011;69850;50.942;13.748;2023-05-10T05:01:50;5.05;;;2.05;;
9834;SDS011;69850;50.942;13.748;2023-05-10T05:05:11;3.13;;;2.30;;
9834;SDS011;69850;50.942;13.748;2023-05-10T05:08:32;3.28;;;2.45;;
9834;SDS011;69850;50.942;13.748;2023-05-10T05:11:52;5.53;;;1.85;;
9834;SDS011;69850;50.942;13.748;2023-05-10T05:15:13;4.82;;;2.38;;
9834;SDS011;69850;50.942;13.748;2023-05-10T05:18:35;4.22;;;2.45;;
9834;SDS011;69850;50.942;13.748;2023-05-10T05:21:55;2.45;;;2.05;;
9834;SDS011;69850;50.942;13.748;2023-05-10T05:25:16;5.68;;;2.30;;
9834;SDS011;69850;50.942;13.748;2023-05-10T05:28:37;2.67;;;2.33;;
9834;SDS011;69850;50.942;13.748;2023-05-10T05:31:58;3.30;;;2.50;;
9834;SDS011;69850;50.942;13.748;2023-05-10T05:35:18;4.65;;;2.10;;
9834;SDS011;69850;50.942;13.748;2023-05-10T05:38:39;3.20;;;2.30;;
9834;SDS011;69850;50.942;13.748;2023-05-10T05:41:59;5.38;;;2.20;;
9834;SDS011;69850;50.942;13.748;2023-05-10T05:45:20;3.90;;;2.30;;
9834;SDS011;69850;50.942;13.748;2023-05-10T05:48:41;2.67;;;2.30;;
9834;SDS011;69850;50.942;13.748;2023-05-10T05:52:02;4.45;;;2.30;;
9834;SDS011;69850;50.942;13.748;2023-05-10T05:55:23;2.88;;;2.50;;
9834;SDS011;69850;50.942;13.748;2023-05-10T05:58:45;2.30;;;1.98;;
9834;SDS011;69850;50.942;13.748;2023-05-10T06:02:08;2.42;;;1.98;;
9834;SDS011;69850;50.942;13.748;2023-05-10T06:05:29;4.53;;;2.15;;
9834;SDS011;69850;50.942;13.748;2023-05-10T06:08:49;6.35;;;2.25;;
9834;SDS011;69850;50.942;13.748;2023-05-10T06:12:10;6.25;;;2.35;;
9834;SDS011;69850;50.942;13.748;2023-05-10T06:15:32;4.15;;;2.10;;
9834;SDS011;69850;50.942;13.748;2023-05-10T06:18:53;4.35;;;2.00;;
9834;SDS011;69850;50.942;13.748;2023-05-10T06:22:13;3.00;;;2.40;;
9834;SDS011;69850;50.942;13.748;2023-05-10T06:25:34;4.93;;;2.60;;
9834;SDS011;69850;50.942;13.748;2023-05-10T06:28:54;4.05;;;2.08;;
9834;SDS011;69850;50.942;13.748;2023-05-10T06:32:16;6.43;;;2.40;;
9834;SDS011;69850;50.942;13.748;2023-05-10T06:35:37;3.80;;;2.35;;
9834;SDS011;69850;50.942;13.748;2023-05-10T06:38:57;5.03;;;2.50;;
9834;SDS011;69850;50.942;13.748;2023-05-10T06:42:18;5.05;;;2.30;;
9834;SDS011;69850;50.942;13.748;2023-05-10T06:45:40;8.07;;;2.50;;
9834;SDS011;69850;50.942;13.748;2023-05-10T06:49:01;3.50;;;2.13;;
9834;SDS011;69850;50.942;13.748;2023-05-10T06:52:21;3.40;;;2.40;;
9834;SDS011;69850;50.942;13.748;2023-05-10T06:55:42;2.83;;;2.03;;
9834;SDS011;69850;50.942;13.748;2023-05-10T06:59:03;7.03;;;2.47;;
9834;SDS011;69850;50.942;13.748;2023-05-10T07:02:23;2.97;;;2.58;;
9834;SDS011;69850;50.942;13.748;2023-05-10T07:05:44;5.00;;;2.50;;
9834;SDS011;69850;50.942;13.748;2023-05-10T07:09:04;3.85;;;2.38;;
9834;SDS011;69850;50.942;13.748;2023-05-10T07:12:25;7.30;;;2.65;;
9834;SDS011;69850;50.942;13.748;2023-05-10T07:15:46;5.57;;;2.70;;
9834;SDS011;69850;50.942;13.748;2023-05-10T07:19:07;5.97;;;2.53;;
9834;SDS011;69850;50.942;13.748;2023-05-10T07:22:27;6.97;;;2.80;;
9834;SDS011;69850;50.942;13.748;2023-05-10T07:25:48;6.20;;;2.80;;
9834;SDS011;69850;50.942;13.748;2023-05-10T07:29:11;2.92;;;2.58;;
9834;SDS011;69850;50.942;13.748;2023-05-10T07:32:32;5.75;;;2.80;;
9834;SDS011;69850;50.942;13.748;2023-05-10T07:35:52;5.10;;;2.50;;
9834;SDS011;69850;50.942;13.748;2023-05-10T07:39:13;4.95;;;2.60;;
9834;SDS011;69850;50.942;13.748;2023-05-10T07:42:34;3.85;;;2.78;;
9834;SDS011;69850;50.942;13.748;2023-05-10T07:45:54;2.80;;;2.40;;
9834;SDS011;69850;50.942;13.748;2023-05-10T07:49:17;4.50;;;2.40;;
9834;SDS011;69850;50.942;13.748;2023-05-10T07:52:38;4.38;;;2.88;;
9834;SDS011;69850;50.942;13.748;2023-05-10T07:55:58;5.85;;;2.97;;
9834;SDS011;69850;50.942;13.748;2023-05-10T07:59:19;8.40;;;3.08;;
9834;SDS011;69850;50.942;13.748;2023-05-10T08:02:40;3.45;;;2.55;;
9834;SDS011;69850;50.942;13.748;2023-05-10T08:06:01;3.53;;;2.97;;
9834;SDS011;69850;50.942;13.748;2023-05-10T08:09:21;3.63;;;3.00;;
9834;SDS011;69850;50.942;13.748;2023-05-10T08:12:44;3.63;;;2.70;;
9834;SDS011;69850;50.942;13.748;2023-05-10T08:16:04;6.82;;;3.10;;
9834;SDS011;69850;50.942;13.748;2023-05-10T08:19:25;7.93;;;3.10;;
9834;SDS011;69850;50.942;13.748;2023-05-10T08:22:46;4.90;;;3.15;;
9834;SDS011;69850;50.942;13.748;2023-05-10T08:26:06;5.25;;;3.00;;
9834;SDS011;69850;50.942;13.748;2023-05-10T08:29:27;6.07;;;2.95;;
9834;SDS011;69850;50.942;13.748;2023-05-10T08:32:48;6.53;;;3.30;;
9834;SDS011;69850;50.942;13.748;2023-05-10T08:36:09;3.97;;;2.97;;
9834;SDS011;69850;50.942;13.748;2023-05-10T08:39:29;4.60;;;3.38;;
9834;SDS011;69850;50.942;13.748;2023-05-10T08:43:07;5.97;;;3.10;;
9834;SDS011;69850;50.942;13.748;2023-05-10T08:46:28;5.60;;;3.10;;
9834;SDS011;69850;50.942;13.748;2023-05-10T08:49:50;4.00;;;3.00;;
9834;SDS011;69850;50.942;13.748;2023-05-10T08:53:12;5.97;;;3.03;;
9834;SDS011;69850;50.942;13.748;2023-05-10T08:56:33;6.38;;;3.30;;
9834;SDS011;69850;50.942;13.748;2023-05-10T08:59:54;9.25;;;3.25;;
9834;SDS011;69850;50.942;13.748;2023-05-10T09:03:15;9.38;;;3.33;;
9834;SDS011;69850;50.942;13.748;2023-05-10T09:06:36;5.68;;;3.13;;
9834;SDS011;69850;50.942;13.748;2023-05-10T09:09:56;5.55;;;3.45;;
9834;SDS011;69850;50.942;13.748;2023-05-10T09:13:18;3.65;;;3.13;;
9834;SDS011;69850;50.942;13.748;2023-05-10T09:16:39;4.32;;;3.60;;
9834;SDS011;69850;50.942;13.748;2023-05-10T09:20:01;3.85;;;3.30;;
9834;SDS011;69850;50.942;13.748;2023-05-10T09:23:24;4.53;;;3.45;;
9834;SDS011;69850;50.942;13.748;2023-05-10T09:26:51;5.57;;;3.30;;
9834;SDS011;69850;50.942;13.748;2023-05-10T09:30:27;5.00;;;3.72;;
9834;SDS011;69850;50.942;13.748;2023-05-10T09:33:49;5.90;;;3.60;;
9834;SDS011;69850;50.942;13.748;2023-05-10T09:37:11;6.05;;;3.58;;
9834;SDS011;69850;50.942;13.748;2023-05-10T09:40:32;4.88;;;3.60;;
9834;SDS011;69850;50.942;13.748;2023-05-10T09:43:55;4.47;;;3.45;;
9834;SDS011;69850;50.942;13.748;2023-05-10T09:47:18;4.22;;;3.50;;
9834;SDS011;69850;50.942;13.748;2023-05-10T09:50:39;5.53;;;3.47;;
9834;SDS011;69850;50.942;13.748;2023-05-10T09:57:29;5.72;;;3.92;;
9834;SDS011;69850;50.942;13.748;2023-05-10T10:00:50;4.32;;;3.80;;
9834;SDS011;69850;50.942;13.748;2023-05-10T10:04:12;4.90;;;3.83;;
9834;SDS011;69850;50.942;13.748;2023-05-10T10:07:34;6.32;;;3.90;;
9834;SDS011;69850;50.942;13.748;2023-05-10T10:10:55;8.77;;;4.35;;
9834;SDS011;69850;50.942;13.748;2023-05-10T10:14:18;8.00;;;4.00;;
9834;SDS011;69850;50.942;13.748;2023-05-10T10:17:38;5.80;;;3.70;;
9834;SDS011;69850;50.942;13.748;2023-05-10T10:21:00;4.85;;;3.20;;
9834;SDS011;69850;50.942;13.748;2023-05-10T10:24:20;4.55;;;3.95;;
9834;SDS011;69850;50.942;13.748;2023-05-10T10:34:53;4.85;;;3.65;;
9834;SDS011;69850;50.942;13.748;2023-05-10T10:38:14;6.28;;;4.00;;
9834;SDS011;69850;50.942;13.748;2023-05-10T10:45:15;4.43;;;3.60;;
9834;SDS011;69850;50.942;13.748;2023-05-10T10:48:36;6.03;;;3.53;;
9834;SDS011;69850;50.942;13.748;2023-05-10T10:52:17;6.97;;;4.10;;
9834;SDS011;69850;50.942;13.748;2023-05-10T10:56:09;5.00;;;3.97;;
9834;SDS011;69850;50.942;13.748;2023-05-10T10:59:30;5.50;;;3.80;;
9834;SDS011;69850;50.942;13.748;2023-05-10T11:02:52;4.82;;;3.83;;
9834;SDS011;69850;50.942;13.748;2023-05-10T11:06:12;5.10;;;3.92;;
9834;SDS011;69850;50.942;13.748;2023-05-10T11:09:38;4.82;;;4.22;;
9834;SDS011;69850;50.942;13.748;2023-05-10T11:13:00;6.72;;;4.30;;
9834;SDS011;69850;50.942;13.748;2023-05-10T11:16:27;6.00;;;4.30;;
9834;SDS011;69850;50.942;13.748;2023-05-10T11:20:06;6.32;;;4.50;;
9834;SDS011;69850;50.942;13.748;2023-05-10T11:26:59;4.82;;;4.20;;
9834;SDS011;69850;50.942;13.748;2023-05-10T11:30:21;4.63;;;4.10;;
9834;SDS011;69850;50.942;13.748;2023-05-10T11:33:44;5.50;;;4.53;;
9834;SDS011;69850;50.942;13.748;2023-05-10T11:37:06;5.85;;;4.43;;
9834;SDS011;69850;50.942;13.748;2023-05-10T11:40:26;7.40;;;4.85;;
9834;SDS011;69850;50.942;13.748;2023-05-10T11:43:48;8.05;;;4.50;;
9834;SDS011;69850;50.942;13.748;2023-05-10T11:47:10;6.15;;;4.18;;
9834;SDS011;69850;50.942;13.748;2023-05-10T11:50:32;5.90;;;4.45;;
9834;SDS011;69850;50.942;13.748;2023-05-10T11:53:53;7.95;;;4.85;;
9834;SDS011;69850;50.942;13.748;2023-05-10T11:57:15;9.00;;;4.78;;
9834;SDS011;69850;50.942;13.748;2023-05-10T12:00:35;5.75;;;4.05;;
9834;SDS011;69850;50.942;13.748;2023-05-10T12:03:58;11.38;;;5.50;;
9834;SDS011;69850;50.942;13.748;2023-05-10T12:07:20;4.85;;;4.00;;
9834;SDS011;69850;50.942;13.748;2023-05-10T12:10:40;7.32;;;4.28;;
9834;SDS011;69850;50.942;13.748;2023-05-10T12:14:03;5.72;;;3.90;;
9834;SDS011;69850;50.942;13.748;2023-05-10T12:17:28;7.15;;;4.38;;
9834;SDS011;69850;50.942;13.748;2023-05-10T12:20:49;6.82;;;4.07;;
9834;SDS011;69850;50.942;13.748;2023-05-10T12:24:12;6.38;;;4.03;;
9834;SDS011;69850;50.942;13.748;2023-05-10T12:27:32;5.25;;;4.10;;
9834;SDS011;69850;50.942;13.748;2023-05-10T12:30:53;5.00;;;4.30;;
9834;SDS011;69850;50.942;13.748;2023-05-10T12:34:22;5.25;;;3.70;;
9834;SDS011;69850;50.942;13.748;2023-05-10T12:37:43;5.45;;;4.10;;
9834;SDS011;69850;50.942;13.748;2023-05-10T12:44:26;9.30;;;4.32;;
9834;SDS011;69850;50.942;13.748;2023-05-10T12:47:46;8.50;;;4.40;;
9834;SDS011;69850;50.942;13.748;2023-05-10T12:51:07;4.50;;;3.90;;
9834;SDS011;69850;50.942;13.748;2023-05-10T12:54:37;5.03;;;3.88;;
9834;SDS011;69850;50.942;13.748;2023-05-10T12:57:57;4.25;;;3.60;;
9834;SDS011;69850;50.942;13.748;2023-05-10T13:01:18;5.18;;;3.67;;
9834;SDS011;69850;50.942;13.748;2023-05-10T13:04:39;4.85;;;3.70;;
9834;SDS011;69850;50.942;13.748;2023-05-10T13:07:59;6.03;;;3.42;;
9834;SDS011;69850;50.942;13.748;2023-05-10T13:11:20;4.25;;;3.50;;
9834;SDS011;69850;50.942;13.748;2023-05-10T13:14:41;5.72;;;3.95;;
9834;SDS011;69850;50.942;13.748;2023-05-10T13:18:02;4.68;;;3.75;;
9834;SDS011;69850;50.942;13.748;2023-05-10T13:21:22;4.03;;;3.50;;
9834;SDS011;69850;50.942;13.748;2023-05-10T13:24:44;8.73;;;3.50;;
9834;SDS011;69850;50.942;13.748;2023-05-10T13:28:05;7.03;;;3.38;;
9834;SDS011;69850;50.942;13.748;2023-05-10T13:31:26;5.05;;;3.53;;
9834;SDS011;69850;50.942;13.748;2023-05-10T13:34:46;5.80;;;3.60;;
9834;SDS011;69850;50.942;13.748;2023-05-10T13:38:07;6.43;;;3.72;;
9834;SDS011;69850;50.942;13.748;2023-05-10T13:41:28;5.78;;;3.60;;
9834;SDS011;69850;50.942;13.748;2023-05-10T13:44:49;7.03;;;3.50;;
9834;SDS011;69850;50.942;13.748;2023-05-10T13:48:10;4.25;;;3.55;;
9834;SDS011;69850;50.942;13.748;2023-05-10T13:51:31;3.60;;;3.30;;
9834;SDS011;69850;50.942;13.748;2023-05-10T13:54:53;5.15;;;3.55;;
9834;SDS011;69850;50.942;13.748;2023-05-10T13:58:15;5.10;;;3.80;;
9834;SDS011;69850;50.942;13.748;2023-05-10T14:01:35;5.03;;;3.78;;
9834;SDS011;69850;50.942;13.748;2023-05-10T14:04:56;4.85;;;3.42;;
9834;SDS011;69850;50.942;13.748;2023-05-10T14:08:17;5.63;;;3.70;;
9834;SDS011;69850;50.942;13.748;2023-05-10T14:11:37;4.57;;;3.22;;
9834;SDS011;69850;50.942;13.748;2023-05-10T14:15:01;4.25;;;3.33;;
9834;SDS011;69850;50.942;13.748;2023-05-10T14:18:22;5.90;;;3.45;;
9834;SDS011;69850;50.942;13.748;2023-05-10T14:21:43;5.57;;;3.30;;
9834;SDS011;69850;50.942;13.748;2023-05-10T14:25:03;4.22;;;3.50;;
9834;SDS011;69850;50.942;13.748;2023-05-10T14:28:24;5.72;;;3.80;;
9834;SDS011;69850;50.942;13.748;2023-05-10T14:31:45;7.10;;;3.25;;
9834;SDS011;69850;50.942;13.748;2023-05-10T14:35:06;4.28;;;3.30;;
9834;SDS011;69850;50.942;13.748;2023-05-10T14:38:26;4.57;;;3.30;;
9834;SDS011;69850;50.942;13.748;2023-05-10T14:41:48;5.72;;;3.80;;
9834;SDS011;69850;50.942;13.748;2023-05-10T14:45:09;6.85;;;4.15;;
9834;SDS011;69850;50.942;13.748;2023-05-10T14:48:31;5.55;;;3.63;;
9834;SDS011;69850;50.942;13.748;2023-05-10T14:51:51;4.55;;;3.72;;
9834;SDS011;69850;50.942;13.748;2023-05-10T14:55:12;5.05;;;3.47;;
9834;SDS011;69850;50.942;13.748;2023-05-10T14:58:33;4.90;;;3.85;;
9834;SDS011;69850;50.942;13.748;2023-05-10T15:01:54;6.35;;;3.55;;
9834;SDS011;69850;50.942;13.748;2023-05-10T15:05:14;5.07;;;3.55;;
9834;SDS011;69850;50.942;13.748;2023-05-10T15:08:35;4.93;;;3.78;;
9834;SDS011;69850;50.942;13.748;2023-05-10T15:11:55;5.75;;;3.58;;
9834;SDS011;69850;50.942;13.748;2023-05-10T15:15:16;7.25;;;3.63;;
9834;SDS011;69850;50.942;13.748;2023-05-10T15:18:37;5.50;;;3.60;;
9834;SDS011;69850;50.942;13.748;2023-05-10T15:21:57;6.07;;;3.55;;
9834;SDS011;69850;50.942;13.748;2023-05-10T15:25:18;4.78;;;3.83;;
9834;SDS011;69850;50.942;13.748;2023-05-10T15:28:38;6.43;;;4.45;;
9834;SDS011;69850;50.942;13.748;2023-05-10T15:31:59;7.28;;;5.03;;
9834;SDS011;69850;50.942;13.748;2023-05-10T15:35:21;6.40;;;4.65;;
9834;SDS011;69850;50.942;13.748;2023-05-10T15:38:42;8.32;;;4.65;;
9834;SDS011;69850;50.942;13.748;2023-05-10T15:42:03;4.70;;;4.07;;
9834;SDS011;69850;50.942;13.748;2023-05-10T15:45:24;7.18;;;5.65;;
9834;SDS011;69850;50.942;13.748;2023-05-10T15:48:44;7.03;;;5.68;;
9834;SDS011;69850;50.942;13.748;2023-05-10T15:52:05;10.73;;;6.00;;
9834;SDS011;69850;50.942;13.748;2023-05-10T15:55:25;7.18;;;6.47;;
9834;SDS011;69850;50.942;13.748;2023-05-10T15:58:46;9.38;;;5.65;;
9834;SDS011;69850;50.942;13.748;2023-05-10T16:02:08;10.93;;;5.32;;
9834;SDS011;69850;50.942;13.748;2023-05-10T16:05:30;9.55;;;4.97;;
9834;SDS011;69850;50.942;13.748;2023-05-10T16:08:52;6.28;;;4.60;;
9834;SDS011;69850;50.942;13.748;2023-05-10T16:12:13;10.15;;;7.07;;
9834;SDS011;69850;50.942;13.748;2023-05-10T16:15:34;8.80;;;5.97;;
9834;SDS011;69850;50.942;13.748;2023-05-10T16:18:55;6.45;;;5.57;;
9834;SDS011;69850;50.942;13.748;2023-05-10T16:22:15;5.68;;;4.75;;
9834;SDS011;69850;50.942;13.748;2023-05-10T16:25:36;9.85;;;5.18;;
9834;SDS011;69850;50.942;13.748;2023-05-10T16:28:57;8.07;;;4.82;;
9834;SDS011;69850;50.942;13.748;2023-05-10T16:32:17;7.13;;;4.90;;
9834;SDS011;69850;50.942;13.748;2023-05-10T16:35:38;9.73;;;5.22;;
9834;SDS011;69850;50.942;13.748;2023-05-10T16:38:59;6.68;;;5.20;;
9834;SDS011;69850;50.942;13.748;2023-05-10T16:42:20;5.90;;;4.72;;
9834;SDS011;69850;50.942;13.748;2023-05-10T16:45:40;13.68;;;5.28;;
9834;SDS011;69850;50.942;13.748;2023-05-10T16:49:01;8.38;;;5.47;;
9834;SDS011;69850;50.942;13.748;2023-05-10T16:52:22;8.98;;;5.15;;
9834;SDS011;69850;50.942;13.748;2023-05-10T16:55:43;6.82;;;5.00;;
9834;SDS011;69850;50.942;13.748;2023-05-10T16:59:03;9.70;;;7.05;;
9834;SDS011;69850;50.942;13.748;2023-05-10T17:02:24;11.63;;;6.15;;
9834;SDS011;69850;50.942;13.748;2023-05-10T17:05:45;17.27;;;9.45;;
9834;SDS011;69850;50.942;13.748;2023-05-10T17:09:06;11.60;;;5.60;;
9834;SDS011;69850;50.942;13.748;2023-05-10T17:12:27;6.55;;;5.10;;
9834;SDS011;69850;50.942;13.748;2023-05-10T17:15:47;8.15;;;5.60;;
9834;SDS011;69850;50.942;13.748;2023-05-10T17:19:08;9.20;;;5.45;;
9834;SDS011;69850;50.942;13.748;2023-05-10T17:22:29;7.07;;;5.03;;
9834;SDS011;69850;50.942;13.748;2023-05-10T17:25:49;8.18;;;6.28;;
9834;SDS011;69850;50.942;13.748;2023-05-10T17:29:10;11.70;;;5.80;;
9834;SDS011;69850;50.942;13.748;2023-05-10T17:32:33;8.30;;;5.43;;
9834;SDS011;69850;50.942;13.748;2023-05-10T17:35:54;8.90;;;5.65;;
9834;SDS011;69850;50.942;13.748;2023-05-10T17:39:16;7.32;;;5.65;;
9834;SDS011;69850;50.942;13.748;2023-05-10T17:42:36;7.28;;;5.40;;
9834;SDS011;69850;50.942;13.748;2023-05-10T17:45:57;8.70;;;5.10;;
9834;SDS011;69850;50.942;13.748;2023-05-10T17:49:18;10.52;;;6.18;;
9834;SDS011;69850;50.942;13.748;2023-05-10T17:52:38;7.07;;;5.60;;
9834;SDS011;69850;50.942;13.748;2023-05-10T17:55:59;9.85;;;5.93;;
9834;SDS011;69850;50.942;13.748;2023-05-10T17:59:21;10.80;;;5.35;;
9834;SDS011;69850;50.942;13.748;2023-05-10T18:02:41;8.68;;;5.60;;
9834;SDS011;69850;50.942;13.748;2023-05-10T18:06:02;9.35;;;5.28;;
9834;SDS011;69850;50.942;13.748;2023-05-10T18:09:23;7.13;;;5.35;;
9834;SDS011;69850;50.942;13.748;2023-05-10T18:12:43;7.13;;;5.85;;
9834;SDS011;69850;50.942;13.748;2023-05-10T18:16:04;10.48;;;5.55;;
9834;SDS011;69850;50.942;13.748;2023-05-10T18:19:27;12.43;;;6.45;;
9834;SDS011;69850;50.942;13.748;2023-05-10T18:22:48;7.47;;;5.65;;
9834;SDS011;69850;50.942;13.748;2023-05-10T18:26:09;11.18;;;5.82;;
9834;SDS011;69850;50.942;13.748;2023-05-10T18:29:29;6.70;;;5.10;;
9834;SDS011;69850;50.942;13.748;2023-05-10T18:32:50;9.50;;;5.35;;
9834;SDS011;69850;50.942;13.748;2023-05-10T18:36:11;11.45;;;6.38;;
9834;SDS011;69850;50.942;13.748;2023-05-10T18:39:32;9.35;;;7.00;;
9834;SDS011;69850;50.942;13.748;2023-05-10T18:42:53;13.18;;;7.25;;
9834;SDS011;69850;50.942;13.748;2023-05-10T18:46:13;9.90;;;5.32;;
9834;SDS011;69850;50.942;13.748;2023-05-10T18:49:34;7.45;;;5.80;;
9834;SDS011;69850;50.942;13.748;2023-05-10T18:52:54;7.38;;;5.85;;
9834;SDS011;69850;50.942;13.748;2023-05-10T18:56:15;10.32;;;6.85;;
9834;SDS011;69850;50.942;13.748;2023-05-10T18:59:36;8.07;;;6.13;;
9834;SDS011;69850;50.942;13.748;2023-05-10T19:02:57;6.13;;;5.07;;
9834;SDS011;69850;50.942;13.748;2023-05-10T19:06:18;9.25;;;7.70;;
9834;SDS011;69850;50.942;13.748;2023-05-10T19:09:39;13.18;;;8.05;;
9834;SDS011;69850;50.942;13.748;2023-05-10T19:13:00;6.72;;;5.40;;
9834;SDS011;69850;50.942;13.748;2023-05-10T19:16:21;11.27;;;5.72;;
9834;SDS011;69850;50.942;13.748;2023-05-10T19:19:41;9.07;;;6.18;;
9834;SDS011;69850;50.942;13.748;2023-05-10T19:23:02;5.75;;;5.15;;
9834;SDS011;69850;50.942;13.748;2023-05-10T19:26:23;6.72;;;5.55;;
9834;SDS011;69850;50.942;13.748;2023-05-10T19:29:43;8.25;;;5.55;;
9834;SDS011;69850;50.942;13.748;2023-05-10T19:33:04;7.03;;;5.72;;
9834;SDS011;69850;50.942;13.748;2023-05-10T19:36:25;6.55;;;5.30;;
9834;SDS011;69850;50.942;13.748;2023-05-10T19:39:45;6.07;;;5.10;;
9834;SDS011;69850;50.942;13.748;2023-05-10T19:43:06;6.35;;;5.18;;
9834;SDS011;69850;50.942;13.748;2023-05-10T19:46:27;7.40;;;5.65;;
9834;SDS011;69850;50.942;13.748;2023-05-10T19:49:47;8.63;;;4.82;;
9834;SDS011;69850;50.942;13.748;2023-05-10T19:53:08;6.97;;;4.95;;
9834;SDS011;69850;50.942;13.748;2023-05-10T19:56:28;5.80;;;4.80;;
9834;SDS011;69850;50.942;13.748;2023-05-10T19:59:49;6.30;;;5.10;;
9834;SDS011;69850;50.942;13.748;2023-05-10T20:03:10;6.30;;;4.97;;
9834;SDS011;69850;50.942;13.748;2023-05-10T20:06:31;7.13;;;5.00;;
9834;SDS011;69850;50.942;13.748;2023-05-10T20:09:52;11.82;;;5.25;;
9834;SDS011;69850;50.942;13.748;2023-05-10T20:13:13;8.40;;;5.43;;
9834;SDS011;69850;50.942;13.748;2023-05-10T20:16:33;10.13;;;5.50;;
9834;SDS011;69850;50.942;13.748;2023-05-10T20:19:54;6.55;;;5.45;;
9834;SDS011;69850;50.942;13.748;2023-05-10T20:23:15;9.18;;;5.88;;
9834;SDS011;69850;50.942;13.748;2023-05-10T20:26:35;8.88;;;5.82;;
9834;SDS011;69850;50.942;13.748;2023-05-10T20:29:56;7.00;;;5.53;;
9834;SDS011;69850;50.942;13.748;2023-05-10T20:33:16;7.13;;;5.75;;
9834;SDS011;69850;50.942;13.748;2023-05-10T20:36:38;7.15;;;5.45;;
9834;SDS011;69850;50.942;13.748;2023-05-10T20:39:58;6.03;;;5.20;;
9834;SDS011;69850;50.942;13.748;2023-05-10T20:43:19;7.97;;;5.38;;
9834;SDS011;69850;50.942;13.748;2023-05-10T20:46:40;5.93;;;4.80;;
9834;SDS011;69850;50.942;13.748;2023-05-10T20:50:01;5.90;;;4.90;;
9834;SDS011;69850;50.942;13.748;2023-05-10T20:53:21;7.25;;;5.22;;